South Lake Tahoe, CA

1:49 AM PDT on September 16, 2014 (GMT -0700)
El Dorado Beach | Change Station
CLOSE
Current Station
Personal Weather Station
Location: South Lake Tahoe, CA
Elevation: 6227 ft
Nearby Weather Stations

Elev 6227 ft 38.94 °N, 119.98 °W | Updated 13 seconds ago

Clear
Clear
61.2 °F
Feels Like 61.2 °F
N
0.0
Wind Variable Wind from ESE
Gusts 2.0 mph

Today
High -- | Low -- °F
--% Chance of Precip.
Yesterday
High -- | Low -- °F
Precip. -- in
6:42 AM 7:06 PM
Waning Gibbous, 47% visible
Pressure 29.95 in
Visibility 10.0 miles
Clouds Clear
Dew Point 43 °F
Humidity 52%
Rainfall 0.00 in
Snow Depth Not available.
UV out of 12
Pollen 7.20 out of 12
Air Quality Not available.
Flu Activity Not available.
METAR KTVL 160753Z AUTO 21008KT 10SM CLR 20/04 A3018 RMK AO2 SLP140 T02000044 402830061

More Conditions Fewer Conditions

Pressure 29.95 in
Visibility 10.0 miles
Clouds Clear
Dew Point 43 °F
Humidity 52%
Rainfall 0.00 in
Snow Depth Not available.
UV out of 12
Pollen 7.20 out of 12
Air Quality Not available.
Flu Activity Not available.
METAR KTVL 160753Z AUTO 21008KT 10SM CLR 20/04 A3018 RMK AO2 SLP140 T02000044 402830061

More Conditions Fewer Conditions

10-Day Weather Forecast

Almanac

Astronomy

Sep. 16, 2014 Rise Set
Actual Time 6:42 AM PDT 7:06 PM PDT
Civil Twilight 6:15 AM PDT 7:33 PM PDT
Nautical Twilight 5:44 AM PDT 8:04 PM PDT
Astronomical Twilight 5:11 AM PDT 8:36 PM PDT
Moon No Moon Rise 2:31 PM PDT
Length of Visible Light 13h 17m
Length of Day
12h 24m
Tomorrow will be 2m 31s shorter.
Waning Gibbous, 47% of the Moon is Illuminated
Today
Waning Gibbous
Sep 24
New
Oct 1
First Quarter
Oct 8
Full
Oct 15
Last Quarter

Today's Extremes

State Highs State Lows

Community

WunderPhotos

Upload Photos

1,753,712 photos uploaded!

WunderBlogs® & News

Nearby

Snow Depth

Station Depth Elevation
Leavitt Lake 0 in 9400 ft
Echo Peak 0 in 7800 ft
Spratt Creek 0 in 6200 ft
Monitor Pass 0 in 8350 ft
Leavitt Meadows 0 in 7200 ft

Earthquake Activity

City Distance Mag. Time & Date
No recent earthquake activity has been reported nearby.
Minimum magnitude displayed is 2.5.

Coastal Water Temperatures

Place Temperature
No Stations Reporting

Nearby Weather Stations